createdAt,value
2023-03-29T00:02:20.043Z,99227.81
2023-03-29T00:04:47.413Z,99240.66
2023-03-29T00:07:14.726Z,99234.72
2023-03-29T00:09:42.734Z,99243.28
2023-03-29T00:12:11.729Z,99235.56
2023-03-29T00:14:38.691Z,99239.03
2023-03-29T00:17:06.726Z,99243.34
2023-03-29T00:19:36.828Z,99235.66
2023-03-29T00:22:06.176Z,99232.19
2023-03-29T00:24:33.405Z,99234.75
2023-03-29T00:27:01.148Z,99236.44
2023-03-29T00:29:28.368Z,99231.31
2023-03-29T00:31:56.242Z,99229.59
2023-03-29T00:34:25.122Z,99239.03
2023-03-29T00:36:53.283Z,99236.44
2023-03-29T00:39:24.199Z,99230.47
2023-03-29T00:41:51.788Z,99233.09
2023-03-29T00:44:53.096Z,99226.25
2023-03-29T00:47:25.667Z,99230.53
2023-03-29T00:49:53.521Z,99224.56
2023-03-29T00:52:21.862Z,99223.75
2023-03-29T00:54:56.334Z,99217.78
2023-03-29T00:57:25.876Z,99221.22
2023-03-29T00:59:55.731Z,99215.25
2023-03-29T01:02:27.039Z,99217.88
2023-03-29T01:05:17.595Z,99217.88
2023-03-29T01:07:54.171Z,99217.03
2023-03-29T01:10:26.526Z,99211.88
2023-03-29T01:12:58.679Z,99205.91
2023-03-29T01:15:27.903Z,99205.91
2023-03-29T01:17:58.335Z,99211.03
2023-03-29T01:20:30.995Z,99209.34
2023-03-29T01:23:26.986Z,99201.66
2023-03-29T01:26:01.888Z,99203.38
2023-03-29T01:28:37.430Z,99198.28
2023-03-29T01:31:08.925Z,99205.97
2023-03-29T01:33:41.818Z,99203.41
2023-03-29T01:36:30.904Z,99204.25
2023-03-29T01:39:00.986Z,99201.72
2023-03-29T01:41:50.635Z,99199.16
2023-03-29T01:44:39.708Z,99194.03
2023-03-29T01:47:36.644Z,99192.31
2023-03-29T01:50:20.382Z,99191.47
2023-03-29T01:52:52.764Z,99199.19
2023-03-29T01:55:36.154Z,99194.03
2023-03-29T01:58:05.061Z,99199.19
2023-03-29T02:00:34.421Z,99188.09
2023-03-29T02:03:06.123Z,99192.31
2023-03-29T02:05:34.712Z,99196.59
2023-03-29T02:08:03.686Z,99189.81
2023-03-29T02:10:32.454Z,99184.69
2023-03-29T02:12:59.907Z,99188.09
2023-03-29T02:15:27.354Z,99185.50
2023-03-29T02:17:54.965Z,99179.53
2023-03-29T02:20:28.772Z,99184.63
2023-03-29T02:22:56.329Z,99185.44
2023-03-29T02:25:24.671Z,99183.72
2023-03-29T02:27:52.996Z,99191.41
2023-03-29T02:30:21.236Z,99182.03
2023-03-29T02:32:57.518Z,99176.91
2023-03-29T02:35:34.788Z,99185.44
2023-03-29T02:38:09.084Z,99183.72
2023-03-29T02:40:37.802Z,99182.03
2023-03-29T02:43:07.170Z,99183.75
2023-03-29T02:45:36.686Z,99186.34
2023-03-29T02:48:06.719Z,99189.78
2023-03-29T02:50:38.090Z,99188.06
2023-03-29T02:53:14.179Z,99188.97
2023-03-29T02:55:41.613Z,99186.34
2023-03-29T02:58:08.630Z,99191.50
2023-03-29T03:00:44.816Z,99195.78
2023-03-29T03:03:12.758Z,99188.97
2023-03-29T03:05:40.107Z,99185.59
2023-03-29T03:08:07.764Z,99196.66
2023-03-29T03:10:35.769Z,99196.66
2023-03-29T03:13:03.062Z,99197.53
2023-03-29T03:15:31.408Z,99195.81
2023-03-29T03:17:58.732Z,99200.06
2023-03-29T03:20:26.655Z,99209.47
2023-03-29T03:22:53.556Z,99207.75
2023-03-29T03:25:21.414Z,99200.06
2023-03-29T03:27:49.880Z,99200.94
2023-03-29T03:30:17.823Z,99198.38
2023-03-29T03:32:44.978Z,99195.81
2023-03-29T03:35:12.564Z,99189.88
2023-03-29T03:37:40.528Z,99197.53
2023-03-29T03:40:09.323Z,99192.44
2023-03-29T03:42:36.257Z,99194.13
2023-03-29T03:45:03.795Z,99189.84
2023-03-29T03:47:31.030Z,99187.28
2023-03-29T03:49:58.433Z,99189.84
2023-03-29T03:52:25.468Z,99188.13
2023-03-29T03:54:53.047Z,99188.13
2023-03-29T03:57:19.953Z,99196.66
2023-03-29T03:59:47.813Z,99194.09
2023-03-29T04:02:15.778Z,99192.44
2023-03-29T04:04:43.094Z,99191.56
2023-03-29T04:07:13.190Z,99200.94
2023-03-29T04:09:40.570Z,99198.38
2023-03-29T04:12:07.652Z,99196.69
2023-03-29T04:14:35.749Z,99195.81
2023-03-29T04:17:02.784Z,99189.00
2023-03-29T04:19:29.975Z,99189.00
2023-03-29T04:21:57.016Z,99181.34
2023-03-29T04:24:25.182Z,99181.34
2023-03-29T04:26:52.081Z,99189.03
2023-03-29T04:29:19.493Z,99189.00
2023-03-29T04:31:46.593Z,99183.88
2023-03-29T04:34:13.830Z,99186.47
2023-03-29T04:36:40.976Z,99187.31
2023-03-29T04:39:08.445Z,99192.44
2023-03-29T04:41:35.455Z,99193.28
2023-03-29T04:44:02.764Z,99194.97
2023-03-29T04:46:30.365Z,99190.66
2023-03-29T04:48:58.862Z,99189.81
2023-03-29T04:51:25.965Z,99186.41
2023-03-29T04:53:53.426Z,99189.81
2023-03-29T04:56:23.404Z,99184.69
2023-03-29T04:58:51.357Z,99179.56
2023-03-29T05:01:18.934Z,99177.03
2023-03-29T05:03:46.300Z,99175.31
2023-03-29T05:06:13.625Z,99177.88
2023-03-29T05:08:41.475Z,99173.56
2023-03-29T05:11:11.848Z,99180.38
2023-03-29T05:13:39.460Z,99179.47
2023-03-29T05:16:07.877Z,99170.00
2023-03-29T05:18:35.893Z,99164.88
2023-03-29T05:21:05.141Z,99174.19
2023-03-29T05:23:32.891Z,99171.56
2023-03-29T05:26:00.426Z,99174.09
2023-03-29T05:28:27.786Z,99174.88
2023-03-29T05:31:06.024Z,99178.25
2023-03-29T05:33:33.865Z,99173.91
2023-03-29T05:36:02.243Z,99170.38
2023-03-29T05:38:35.193Z,99167.72
2023-03-29T05:41:02.509Z,99177.88
2023-03-29T05:43:29.804Z,99180.34
2023-03-29T05:45:57.240Z,99181.13
2023-03-29T05:48:25.496Z,99183.53
2023-03-29T05:50:53.807Z,99179.84
2023-03-29T05:53:22.947Z,99173.50
2023-03-29T05:55:51.338Z,99178.56
2023-03-29T05:58:20.337Z,99186.22
2023-03-29T06:00:49.906Z,99189.66
2023-03-29T06:03:21.534Z,99184.38
2023-03-29T06:05:50.634Z,99182.66
2023-03-29T06:08:17.893Z,99174.75
2023-03-29T06:10:45.557Z,99181.38
2023-03-29T06:13:12.971Z,99179.38
2023-03-29T06:15:40.309Z,99184.16
2023-03-29T06:18:08.059Z,99180.72
2023-03-29T06:20:35.251Z,99182.00
2023-03-29T06:23:02.606Z,99181.94
2023-03-29T06:25:30.152Z,99185.31
2023-03-29T06:27:57.895Z,99189.28
2023-03-29T06:30:25.092Z,99190.81
2023-03-29T06:32:52.660Z,99192.59
2023-03-29T06:35:20.901Z,99190.00
2023-03-29T06:37:50.933Z,99200.59
2023-03-29T06:40:19.290Z,99199.69
2023-03-29T06:42:47.882Z,99200.72
2023-03-29T06:45:15.058Z,99205.94
2023-03-29T06:47:42.592Z,99200.09
2023-03-29T06:50:11.837Z,99202.13
2023-03-29T06:52:39.086Z,99200.50
2023-03-29T06:55:07.914Z,99198.66
2023-03-29T06:57:35.680Z,99197.38
2023-03-29T07:00:14.272Z,99199.03
2023-03-29T07:02:42.951Z,99204.25
2023-03-29T07:05:13.668Z,99210.97
2023-03-29T07:07:55.535Z,99203.84
2023-03-29T07:10:43.376Z,99209.03
2023-03-29T07:13:14.712Z,99202.75
2023-03-29T07:15:42.339Z,99206.84
2023-03-29T07:18:10.157Z,99212.06
2023-03-29T07:20:39.132Z,99208.22
2023-03-29T07:23:08.154Z,99211.03
2023-03-29T07:25:35.620Z,99202.25
2023-03-29T07:28:03.750Z,99200.22
2023-03-29T07:30:32.405Z,99195.16
2023-03-29T07:33:00.586Z,99182.91
2023-03-29T07:35:27.988Z,99189.69
2023-03-29T07:37:56.100Z,99194.63
2023-03-29T07:40:23.910Z,99192.75
2023-03-29T07:42:54.654Z,99198.69
2023-03-29T07:45:26.460Z,99200.97
2023-03-29T07:47:56.649Z,99206.09
2023-03-29T07:50:24.388Z,99210.19
2023-03-29T07:52:51.669Z,99201.41
2023-03-29T07:55:19.108Z,99198.59
2023-03-29T07:57:46.628Z,99194.50
2023-03-29T08:00:17.667Z,99205.66
2023-03-29T08:02:46.960Z,99200.06
2023-03-29T08:05:19.001Z,99197.63
2023-03-29T08:07:51.350Z,99197.81
2023-03-29T08:10:20.368Z,99193.03
2023-03-29T08:12:48.893Z,99190.50
2023-03-29T08:15:16.836Z,99198.03
2023-03-29T08:17:44.826Z,99187.94
2023-03-29T08:20:13.925Z,99184.19
2023-03-29T08:22:41.520Z,99190.88
2023-03-29T08:25:09.380Z,99183.09
2023-03-29T08:27:37.825Z,99175.97
2023-03-29T08:30:07.243Z,99170.22
2023-03-29T08:32:34.703Z,99171.78
2023-03-29T08:35:04.008Z,99172.44
2023-03-29T08:37:32.827Z,99171.41
2023-03-29T08:40:01.059Z,99172.50
2023-03-29T08:42:42.110Z,99168.16
2023-03-29T08:45:12.388Z,99159.91
2023-03-29T08:48:08.759Z,99164.56
2023-03-29T08:50:39.575Z,99164.16
2023-03-29T08:53:41.945Z,99160.38
2023-03-29T08:56:13.793Z,99154.78
2023-03-29T08:58:41.675Z,99157.25
2023-03-29T09:01:11.587Z,99160.69
2023-03-29T09:03:48.663Z,99153.81
2023-03-29T09:06:16.809Z,99149.84
2023-03-29T09:08:46.760Z,99152.13
2023-03-29T09:11:38.789Z,99145.56
2023-03-29T09:14:24.339Z,99147.16
2023-03-29T09:17:03.663Z,99138.69
2023-03-29T09:19:43.134Z,99144.84
2023-03-29T09:22:16.390Z,99135.84
2023-03-29T09:24:47.014Z,99132.69
2023-03-29T09:27:24.756Z,99127.50
2023-03-29T09:30:06.328Z,99120.75
2023-03-29T09:32:43.336Z,99120.25
2023-03-29T09:35:18.543Z,99121.16
2023-03-29T09:37:46.971Z,99127.88
2023-03-29T09:40:31.443Z,99120.63
2023-03-29T09:42:58.810Z,99131.25
2023-03-29T09:45:26.640Z,99126.25
2023-03-29T09:48:09.376Z,99123.25
2023-03-29T09:50:39.302Z,99123.41
2023-03-29T09:53:06.814Z,99122.25
2023-03-29T09:55:36.772Z,99116.56
2023-03-29T09:58:16.237Z,99117.22
2023-03-29T10:00:45.138Z,99120.09
2023-03-29T10:03:24.485Z,99119.63
2023-03-29T10:05:55.612Z,99115.94
2023-03-29T10:08:28.493Z,99117.50
2023-03-29T10:11:00.480Z,99118.59
2023-03-29T10:13:36.927Z,99115.69
2023-03-29T10:16:04.810Z,99107.31
2023-03-29T10:18:33.229Z,99109.94
2023-03-29T10:21:03.756Z,99110.38
2023-03-29T10:23:37.857Z,99097.44
2023-03-29T10:26:09.495Z,99097.13
2023-03-29T10:28:36.997Z,99091.69
2023-03-29T10:31:08.470Z,99095.47
2023-03-29T10:33:36.509Z,99096.34
2023-03-29T10:36:07.132Z,99088.09
2023-03-29T10:38:36.166Z,99092.81
2023-03-29T10:41:11.769Z,99079.59
2023-03-29T10:43:43.674Z,99086.06
2023-03-29T10:46:36.344Z,99088.53
2023-03-29T10:49:12.073Z,99086.34
2023-03-29T10:51:45.212Z,99080.44
2023-03-29T10:54:15.164Z,99081.50
2023-03-29T10:56:47.385Z,99074.75
2023-03-29T10:59:14.596Z,99064.38
2023-03-29T11:02:03.805Z,99074.53
2023-03-29T11:04:37.455Z,99069.56
2023-03-29T11:07:31.913Z,99069.38
2023-03-29T11:10:27.229Z,99059.97
2023-03-29T11:13:03.853Z,99047.84
2023-03-29T11:16:00.101Z,99043.91
2023-03-29T11:18:27.937Z,99041.78
2023-03-29T11:21:13.880Z,99042.06
2023-03-29T11:23:41.850Z,99041.91
2023-03-29T11:26:25.131Z,99029.94
2023-03-29T11:29:19.797Z,99025.22
2023-03-29T11:31:58.114Z,99017.72
2023-03-29T11:34:35.048Z,99018.78
2023-03-29T11:37:43.223Z,99007.59
2023-03-29T11:40:21.476Z,99000.63
2023-03-29T11:42:52.590Z,99002.22
2023-03-29T11:45:32.935Z,98996.41
2023-03-29T11:48:01.003Z,98995.97
2023-03-29T11:50:47.052Z,98982.44
2023-03-29T11:53:22.289Z,98992.00
2023-03-29T11:55:51.703Z,98976.25
2023-03-29T11:58:31.237Z,98977.72
2023-03-29T12:01:03.154Z,98982.69
2023-03-29T12:03:38.786Z,98976.63
2023-03-29T12:06:34.154Z,98981.34
2023-03-29T12:09:31.790Z,98977.03
2023-03-29T12:12:09.729Z,98974.25
2023-03-29T12:14:49.778Z,98962.97
2023-03-29T12:17:25.294Z,98974.19
2023-03-29T12:20:13.576Z,98970.13
2023-03-29T12:22:41.063Z,98973.75
2023-03-29T12:25:14.700Z,98967.53
2023-03-29T12:28:06.977Z,98979.31
2023-03-29T12:30:56.251Z,98967.25
2023-03-29T12:33:36.209Z,98954.13
2023-03-29T12:36:31.956Z,98953.88
2023-03-29T12:38:59.721Z,98944.81
2023-03-29T12:41:35.714Z,98944.06
2023-03-29T12:44:04.148Z,98942.63
2023-03-29T12:46:35.544Z,98940.31
2023-03-29T12:49:28.304Z,98945.66
2023-03-29T12:51:57.609Z,98939.66
2023-03-29T12:54:28.905Z,98932.63
2023-03-29T12:57:01.223Z,98928.72
2023-03-29T12:59:39.954Z,98919.97
2023-03-29T13:02:14.075Z,98923.22
2023-03-29T13:05:00.568Z,98912.50
2023-03-29T13:07:28.896Z,98919.34
2023-03-29T13:10:03.607Z,98914.34
2023-03-29T13:12:42.466Z,98916.19
2023-03-29T13:15:17.101Z,98910.75
2023-03-29T13:18:04.104Z,98905.03
2023-03-29T13:20:59.543Z,98900.31
2023-03-29T13:24:04.043Z,98896.53
2023-03-29T13:26:57.164Z,98903.97
2023-03-29T13:29:50.886Z,98907.13
2023-03-29T13:32:27.306Z,98893.38
2023-03-29T13:35:13.172Z,98891.09
2023-03-29T13:37:57.270Z,98885.94
2023-03-29T13:40:44.074Z,98878.44
2023-03-29T13:43:19.607Z,98880.97
2023-03-29T13:46:04.504Z,98878.56
2023-03-29T13:48:57.194Z,98873.72
2023-03-29T13:51:32.907Z,98879.97
2023-03-29T13:54:15.156Z,98864.63
2023-03-29T13:57:05.627Z,98871.38
2023-03-29T13:59:48.356Z,98866.56
2023-03-29T14:02:41.844Z,98862.16
2023-03-29T14:05:13.351Z,98859.75
2023-03-29T14:07:47.610Z,98857.81
2023-03-29T14:10:18.696Z,98856.06
2023-03-29T14:12:46.832Z,98848.41
2023-03-29T14:15:28.863Z,98847.69
2023-03-29T14:18:00.331Z,98850.91
2023-03-29T14:20:31.029Z,98850.81
2023-03-29T14:22:58.346Z,98841.81
2023-03-29T14:25:25.955Z,98845.53
2023-03-29T14:27:52.974Z,98842.38
2023-03-29T14:30:24.355Z,98854.06
2023-03-29T14:32:52.517Z,98842.06
2023-03-29T14:35:21.915Z,98844.00
2023-03-29T14:37:49.503Z,98842.00
2023-03-29T14:40:20.002Z,98841.03
2023-03-29T14:42:48.814Z,98840.78
2023-03-29T14:45:18.102Z,98831.69
2023-03-29T14:47:46.362Z,98825.97
2023-03-29T14:50:19.637Z,98834.44
2023-03-29T14:52:51.758Z,98828.84
2023-03-29T14:55:23.956Z,98820.97
2023-03-29T14:57:54.779Z,98829.06
2023-03-29T15:00:22.770Z,98820.69
2023-03-29T15:02:55.461Z,98812.28
2023-03-29T15:05:37.362Z,98812.13
2023-03-29T15:08:07.882Z,98804.94
2023-03-29T15:10:37.116Z,98805.84
2023-03-29T15:13:05.670Z,98804.00
2023-03-29T15:15:38.666Z,98801.84
2023-03-29T15:18:07.214Z,98797.59
2023-03-29T15:20:38.871Z,98798.38
2023-03-29T15:23:15.266Z,98796.72
2023-03-29T15:26:06.683Z,98796.41
2023-03-29T15:28:35.844Z,98788.31
2023-03-29T15:31:10.805Z,98784.31
2023-03-29T15:33:39.969Z,98788.50
2023-03-29T15:36:09.875Z,98783.66
2023-03-29T15:38:43.964Z,98789.72
2023-03-29T15:41:14.215Z,98787.63
2023-03-29T15:43:42.114Z,98785.94
2023-03-29T15:46:14.227Z,98779.97
2023-03-29T15:48:42.198Z,98773.78
2023-03-29T15:51:12.680Z,98782.81
2023-03-29T15:53:40.383Z,98775.13
2023-03-29T15:56:29.634Z,98772.72
2023-03-29T15:58:59.139Z,98765.56
2023-03-29T16:01:39.398Z,98764.16
2023-03-29T16:04:20.055Z,98765.28
2023-03-29T16:06:50.160Z,98768.28
2023-03-29T16:09:17.414Z,98767.28
2023-03-29T16:11:45.728Z,98762.81
2023-03-29T16:14:21.145Z,98766.00
2023-03-29T16:16:49.184Z,98768.19
2023-03-29T16:19:16.749Z,98763.03
2023-03-29T16:21:45.186Z,98757.53
2023-03-29T16:24:32.532Z,98764.00
2023-03-29T16:27:01.870Z,98753.00
2023-03-29T16:29:29.335Z,98742.03
2023-03-29T16:31:57.403Z,98748.38
2023-03-29T16:34:25.323Z,98745.25
2023-03-29T16:36:53.202Z,98739.13
2023-03-29T16:39:20.467Z,98744.09
2023-03-29T16:41:49.216Z,98749.78
2023-03-29T16:44:20.178Z,98757.69
2023-03-29T16:46:50.912Z,98765.75
2023-03-29T16:49:18.863Z,98755.56
2023-03-29T16:51:47.361Z,98758.34
2023-03-29T16:54:15.340Z,98756.81
2023-03-29T16:56:42.883Z,98762.41
2023-03-29T16:59:10.137Z,98761.13
2023-03-29T17:01:38.788Z,98767.88
2023-03-29T17:04:06.165Z,98770.63
2023-03-29T17:06:33.418Z,98770.16
2023-03-29T17:09:00.870Z,98778.28
2023-03-29T17:11:29.030Z,98770.63
2023-03-29T17:13:56.135Z,98781.19
2023-03-29T17:16:24.116Z,98768.53
2023-03-29T17:18:51.198Z,98778.28
2023-03-29T17:21:18.652Z,98783.09
2023-03-29T17:23:46.616Z,98784.66
2023-03-29T17:26:14.385Z,98784.19
2023-03-29T17:28:41.784Z,98780.03
2023-03-29T17:31:09.733Z,98782.34
2023-03-29T17:33:37.132Z,98784.03
2023-03-29T17:36:05.852Z,98784.50
2023-03-29T17:38:34.452Z,98792.41
2023-03-29T17:41:03.020Z,98797.88
2023-03-29T17:43:30.533Z,98796.56
2023-03-29T17:45:58.265Z,98797.06
2023-03-29T17:48:25.816Z,98800.81
2023-03-29T17:50:55.802Z,98804.66
2023-03-29T17:53:23.032Z,98812.19
2023-03-29T17:55:50.427Z,98810.81
2023-03-29T17:58:17.375Z,98807.44
2023-03-29T18:00:45.294Z,98813.34
2023-03-29T18:03:12.340Z,98813.41
2023-03-29T18:05:39.732Z,98801.75
2023-03-29T18:08:10.095Z,98808.72
2023-03-29T18:10:37.444Z,98803.81
2023-03-29T18:13:04.615Z,98805.22
2023-03-29T18:15:32.058Z,98804.63
2023-03-29T18:17:59.172Z,98811.34
2023-03-29T18:20:26.443Z,98813.28
2023-03-29T18:22:53.637Z,98822.88
2023-03-29T18:25:20.935Z,98813.75
2023-03-29T18:27:48.004Z,98821.97
2023-03-29T18:30:16.924Z,98814.59
2023-03-29T18:32:44.249Z,98819.44
2023-03-29T18:35:12.216Z,98821.84
2023-03-29T18:37:39.506Z,98823.94
2023-03-29T18:40:10.631Z,98817.47
2023-03-29T18:42:37.736Z,98817.34
2023-03-29T18:45:05.975Z,98817.13
2023-03-29T18:47:33.383Z,98817.56
2023-03-29T18:50:02.498Z,98808.59
2023-03-29T18:52:29.582Z,98809.75
2023-03-29T18:54:56.946Z,98810.53
2023-03-29T18:57:24.057Z,98810.41
2023-03-29T18:59:52.138Z,98800.94
2023-03-29T19:02:19.346Z,98797.34
2023-03-29T19:04:46.704Z,98789.38
2023-03-29T19:07:14.210Z,98789.38
2023-03-29T19:09:42.007Z,98791.91
2023-03-29T19:12:09.330Z,98787.94
2023-03-29T19:14:38.551Z,98797.22
2023-03-29T19:17:05.564Z,98791.56
2023-03-29T19:19:32.850Z,98797.06
2023-03-29T19:22:00.681Z,98802.03
2023-03-29T19:24:28.801Z,98806.66
2023-03-29T19:26:56.626Z,98803.34
2023-03-29T19:29:24.214Z,98799.00
2023-03-29T19:31:54.245Z,98788.88
2023-03-29T19:34:24.678Z,98797.63
2023-03-29T19:36:53.591Z,98803.28
2023-03-29T19:39:21.214Z,98793.03
2023-03-29T19:41:48.490Z,98793.31
2023-03-29T19:44:16.289Z,98797.25
2023-03-29T19:46:43.369Z,98795.56
2023-03-29T19:49:13.797Z,98796.34
2023-03-29T19:51:42.174Z,98805.09
2023-03-29T19:54:12.211Z,98806.34
2023-03-29T19:56:39.256Z,98798.72
2023-03-29T19:59:07.018Z,98794.63
2023-03-29T20:01:34.017Z,98798.84
2023-03-29T20:04:02.636Z,98793.44
2023-03-29T20:06:29.911Z,98781.94
2023-03-29T20:08:57.817Z,98798.22
2023-03-29T20:11:25.001Z,98791.63
2023-03-29T20:13:53.001Z,98791.03
2023-03-29T20:16:20.098Z,98807.66
2023-03-29T20:18:47.464Z,98808.34
2023-03-29T20:21:16.843Z,98805.91
2023-03-29T20:23:44.983Z,98799.38
2023-03-29T20:26:12.197Z,98791.94
2023-03-29T20:28:39.732Z,98791.38
2023-03-29T20:31:08.153Z,98788.44
2023-03-29T20:33:35.550Z,98786.94
2023-03-29T20:36:03.341Z,98790.38
2023-03-29T20:38:30.791Z,98786.25
2023-03-29T20:40:59.205Z,98778.50
2023-03-29T20:43:26.650Z,98783.06
2023-03-29T20:45:54.525Z,98786.13
2023-03-29T20:48:24.387Z,98783.47
2023-03-29T20:50:51.951Z,98780.00
2023-03-29T20:53:20.820Z,98771.47
2023-03-29T20:55:48.351Z,98773.41
2023-03-29T20:58:16.150Z,98768.13
2023-03-29T21:00:43.816Z,98769.81
2023-03-29T21:03:11.503Z,98764.16
2023-03-29T21:05:39.212Z,98762.69
2023-03-29T21:08:06.556Z,98764.63
2023-03-29T21:10:33.562Z,98761.72
2023-03-29T21:13:02.856Z,98754.06
2023-03-29T21:15:31.237Z,98757.25
2023-03-29T21:17:58.984Z,98752.06
2023-03-29T21:20:27.730Z,98753.22
2023-03-29T21:22:54.985Z,98741.81
2023-03-29T21:25:22.447Z,98743.63
2023-03-29T21:27:49.998Z,98742.09
2023-03-29T21:30:17.332Z,98745.72
2023-03-29T21:32:45.403Z,98751.03
2023-03-29T21:35:13.364Z,98749.16
2023-03-29T21:37:41.071Z,98749.59
2023-03-29T21:40:10.792Z,98751.88
2023-03-29T21:42:38.711Z,98742.13
2023-03-29T21:45:06.142Z,98740.91
2023-03-29T21:47:37.869Z,98745.84
2023-03-29T21:50:05.817Z,98741.06
2023-03-29T21:52:33.148Z,98737.88
2023-03-29T21:55:00.359Z,98740.97
2023-03-29T21:57:27.938Z,98730.28
2023-03-29T21:59:54.856Z,98724.84
2023-03-29T22:02:22.366Z,98727.00
2023-03-29T22:04:49.622Z,98723.22
2023-03-29T22:07:17.409Z,98714.84
2023-03-29T22:09:44.765Z,98715.53
2023-03-29T22:12:12.394Z,98712.03
2023-03-29T22:14:39.452Z,98709.28
2023-03-29T22:17:07.056Z,98705.53
2023-03-29T22:19:39.248Z,98703.56
2023-03-29T22:22:13.967Z,98698.34
2023-03-29T22:24:42.321Z,98701.03
2023-03-29T22:27:11.228Z,98699.13
2023-03-29T22:29:38.195Z,98697.75
2023-03-29T22:32:06.050Z,98701.97
2023-03-29T22:34:33.370Z,98700.91
2023-03-29T22:37:00.671Z,98707.72
2023-03-29T22:39:27.753Z,98699.38
2023-03-29T22:41:54.969Z,98703.78
2023-03-29T22:44:21.993Z,98695.16
2023-03-29T22:46:49.656Z,98702.81
2023-03-29T22:49:17.688Z,98696.75
2023-03-29T22:51:44.915Z,98686.22
2023-03-29T22:54:12.283Z,98695.56
2023-03-29T22:56:39.527Z,98691.78
2023-03-29T22:59:06.702Z,98696.31
2023-03-29T23:01:34.292Z,98689.03
2023-03-29T23:04:01.408Z,98692.63
2023-03-29T23:06:28.767Z,98696.16
2023-03-29T23:08:56.155Z,98692.63
2023-03-29T23:11:23.489Z,98688.59
2023-03-29T23:13:50.991Z,98681.66
2023-03-29T23:16:21.367Z,98688.47
2023-03-29T23:18:48.671Z,98682.25
2023-03-29T23:21:16.334Z,98686.59
2023-03-29T23:23:43.710Z,98683.16
2023-03-29T23:26:11.973Z,98681.50
2023-03-29T23:28:38.974Z,98682.41
2023-03-29T23:31:13.040Z,98675.91
2023-03-29T23:33:42.757Z,98681.94
2023-03-29T23:36:13.817Z,98679.41
2023-03-29T23:38:42.517Z,98676.59
2023-03-29T23:41:12.909Z,98681.94
2023-03-29T23:43:41.929Z,98676.50
2023-03-29T23:46:15.403Z,98667.47
2023-03-29T23:48:47.358Z,98664.72
2023-03-29T23:51:18.210Z,98668.78
2023-03-29T23:53:45.351Z,98665.41
2023-03-29T23:56:13.316Z,98667.78
2023-03-29T23:58:40.312Z,98669.47
